sensor_id;sensor_type;location;lat;lon;timestamp;temperature;humidity
84902;DHT22;75166;51.198;6.010;2024-02-21T00:00:20;10.60;79.40
84902;DHT22;75166;51.198;6.010;2024-02-21T00:02:46;10.60;79.50
84902;DHT22;75166;51.198;6.010;2024-02-21T00:05:11;10.60;79.50
84902;DHT22;75166;51.198;6.010;2024-02-21T00:07:37;10.60;79.50
84902;DHT22;75166;51.198;6.010;2024-02-21T00:10:03;10.60;79.70
84902;DHT22;75166;51.198;6.010;2024-02-21T00:12:28;10.60;79.60
84902;DHT22;75166;51.198;6.010;2024-02-21T00:14:54;10.60;79.60
84902;DHT22;75166;51.198;6.010;2024-02-21T00:17:20;10.60;79.60
84902;DHT22;75166;51.198;6.010;2024-02-21T00:19:45;10.60;79.60
84902;DHT22;75166;51.198;6.010;2024-02-21T00:22:11;10.60;79.70
84902;DHT22;75166;51.198;6.010;2024-02-21T00:24:36;10.60;79.70
84902;DHT22;75166;51.198;6.010;2024-02-21T00:27:02;10.60;79.70
84902;DHT22;75166;51.198;6.010;2024-02-21T00:29:28;10.60;79.70
84902;DHT22;75166;51.198;6.010;2024-02-21T00:31:54;10.60;79.80
84902;DHT22;75166;51.198;6.010;2024-02-21T00:34:19;10.60;79.90
84902;DHT22;75166;51.198;6.010;2024-02-21T00:36:45;10.60;79.80
84902;DHT22;75166;51.198;6.010;2024-02-21T00:39:11;10.60;79.80
84902;DHT22;75166;51.198;6.010;2024-02-21T00:41:36;10.70;79.90
84902;DHT22;75166;51.198;6.010;2024-02-21T00:44:02;10.60;79.90
84902;DHT22;75166;51.198;6.010;2024-02-21T00:46:31;10.60;79.90
84902;DHT22;75166;51.198;6.010;2024-02-21T00:48:56;10.60;79.90
84902;DHT22;75166;51.198;6.010;2024-02-21T00:51:22;10.60;79.90
84902;DHT22;75166;51.198;6.010;2024-02-21T00:53:47;10.60;80.00
84902;DHT22;75166;51.198;6.010;2024-02-21T00:56:13;10.60;80.00
84902;DHT22;75166;51.198;6.010;2024-02-21T00:58:39;10.60;80.00
84902;DHT22;75166;51.198;6.010;2024-02-21T01:01:04;10.60;80.00
84902;DHT22;75166;51.198;6.010;2024-02-21T01:03:30;10.60;80.00
84902;DHT22;75166;51.198;6.010;2024-02-21T01:05:55;10.60;80.00
84902;DHT22;75166;51.198;6.010;2024-02-21T01:08:21;10.60;80.00
84902;DHT22;75166;51.198;6.010;2024-02-21T01:10:47;10.60;80.00
84902;DHT22;75166;51.198;6.010;2024-02-21T01:13:12;10.60;80.20
84902;DHT22;75166;51.198;6.010;2024-02-21T01:15:38;10.60;80.00
84902;DHT22;75166;51.198;6.010;2024-02-21T01:18:04;10.60;80.10
84902;DHT22;75166;51.198;6.010;2024-02-21T01:20:30;10.60;80.20
84902;DHT22;75166;51.198;6.010;2024-02-21T01:22:56;10.60;80.10
84902;DHT22;75166;51.198;6.010;2024-02-21T01:25:21;10.60;80.20
84902;DHT22;75166;51.198;6.010;2024-02-21T01:27:47;10.70;80.20
84902;DHT22;75166;51.198;6.010;2024-02-21T01:30:13;10.60;80.20
84902;DHT22;75166;51.198;6.010;2024-02-21T01:32:38;10.60;80.20
84902;DHT22;75166;51.198;6.010;2024-02-21T01:35:04;10.60;80.20
84902;DHT22;75166;51.198;6.010;2024-02-21T01:37:30;10.60;80.20
84902;DHT22;75166;51.198;6.010;2024-02-21T01:39:55;10.60;80.20
84902;DHT22;75166;51.198;6.010;2024-02-21T01:42:21;10.60;80.20
84902;DHT22;75166;51.198;6.010;2024-02-21T01:44:47;10.60;80.20
84902;DHT22;75166;51.198;6.010;2024-02-21T01:47:13;10.60;80.30
84902;DHT22;75166;51.198;6.010;2024-02-21T01:49:41;10.60;80.30
84902;DHT22;75166;51.198;6.010;2024-02-21T01:52:07;10.60;80.30
84902;DHT22;75166;51.198;6.010;2024-02-21T01:54:33;10.60;80.30
84902;DHT22;75166;51.198;6.010;2024-02-21T01:57:00;10.60;80.30
84902;DHT22;75166;51.198;6.010;2024-02-21T01:59:25;10.60;80.40
84902;DHT22;75166;51.198;6.010;2024-02-21T02:01:51;10.60;80.30
84902;DHT22;75166;51.198;6.010;2024-02-21T02:04:19;10.60;80.30
84902;DHT22;75166;51.198;6.010;2024-02-21T02:06:46;10.60;80.30
84902;DHT22;75166;51.198;6.010;2024-02-21T02:09:11;10.60;80.40
84902;DHT22;75166;51.198;6.010;2024-02-21T02:11:37;10.60;80.40
84902;DHT22;75166;51.198;6.010;2024-02-21T02:14:03;10.60;80.40
84902;DHT22;75166;51.198;6.010;2024-02-21T02:16:28;10.60;80.40
84902;DHT22;75166;51.198;6.010;2024-02-21T02:18:54;10.60;80.40
84902;DHT22;75166;51.198;6.010;2024-02-21T02:21:29;10.60;80.40
84902;DHT22;75166;51.198;6.010;2024-02-21T02:23:55;10.60;80.40
84902;DHT22;75166;51.198;6.010;2024-02-21T02:26:20;10.60;80.40
84902;DHT22;75166;51.198;6.010;2024-02-21T02:28:46;10.60;80.40
84902;DHT22;75166;51.198;6.010;2024-02-21T02:31:12;10.60;80.40
84902;DHT22;75166;51.198;6.010;2024-02-21T02:33:37;10.60;80.50
84902;DHT22;75166;51.198;6.010;2024-02-21T02:36:03;10.60;80.50
84902;DHT22;75166;51.198;6.010;2024-02-21T02:38:29;10.60;80.50
84902;DHT22;75166;51.198;6.010;2024-02-21T02:40:55;10.60;80.50
84902;DHT22;75166;51.198;6.010;2024-02-21T02:43:20;10.60;80.60
84902;DHT22;75166;51.198;6.010;2024-02-21T02:45:46;10.60;80.50
84902;DHT22;75166;51.198;6.010;2024-02-21T02:48:11;10.60;80.40
84902;DHT22;75166;51.198;6.010;2024-02-21T02:50:37;10.60;80.50
84902;DHT22;75166;51.198;6.010;2024-02-21T02:53:03;10.60;80.40
84902;DHT22;75166;51.198;6.010;2024-02-21T02:55:28;10.60;80.40
84902;DHT22;75166;51.198;6.010;2024-02-21T02:57:54;10.60;80.40
84902;DHT22;75166;51.198;6.010;2024-02-21T03:00:20;10.60;80.50
84902;DHT22;75166;51.198;6.010;2024-02-21T03:02:48;10.60;80.40
84902;DHT22;75166;51.198;6.010;2024-02-21T03:05:16;10.60;80.40
84902;DHT22;75166;51.198;6.010;2024-02-21T03:07:42;10.60;80.40
84902;DHT22;75166;51.198;6.010;2024-02-21T03:10:08;10.60;80.40
84902;DHT22;75166;51.198;6.010;2024-02-21T03:12:34;10.60;80.40
84902;DHT22;75166;51.198;6.010;2024-02-21T03:14:59;10.60;80.50
84902;DHT22;75166;51.198;6.010;2024-02-21T03:17:25;10.60;80.60
84902;DHT22;75166;51.198;6.010;2024-02-21T03:19:52;10.60;80.40
84902;DHT22;75166;51.198;6.010;2024-02-21T03:22:18;10.60;80.60
84902;DHT22;75166;51.198;6.010;2024-02-21T03:24:44;10.60;80.40
84902;DHT22;75166;51.198;6.010;2024-02-21T03:27:10;10.60;80.50
84902;DHT22;75166;51.198;6.010;2024-02-21T03:29:36;10.60;80.40
84902;DHT22;75166;51.198;6.010;2024-02-21T03:32:01;10.60;80.30
84902;DHT22;75166;51.198;6.010;2024-02-21T03:34:27;10.60;80.30
84902;DHT22;75166;51.198;6.010;2024-02-21T03:36:53;10.60;80.30
84902;DHT22;75166;51.198;6.010;2024-02-21T03:39:18;10.50;80.20
84902;DHT22;75166;51.198;6.010;2024-02-21T03:41:44;10.60;80.30
84902;DHT22;75166;51.198;6.010;2024-02-21T03:44:09;10.60;80.30
84902;DHT22;75166;51.198;6.010;2024-02-21T03:46:35;10.50;80.20
84902;DHT22;75166;51.198;6.010;2024-02-21T03:49:01;10.60;80.30
84902;DHT22;75166;51.198;6.010;2024-02-21T03:51:26;10.60;80.20
84902;DHT22;75166;51.198;6.010;2024-02-21T03:53:52;10.50;80.20
84902;DHT22;75166;51.198;6.010;2024-02-21T03:56:18;10.60;80.20
84902;DHT22;75166;51.198;6.010;2024-02-21T03:58:43;10.60;80.20
84902;DHT22;75166;51.198;6.010;2024-02-21T04:01:09;10.60;80.30
84902;DHT22;75166;51.198;6.010;2024-02-21T04:03:34;10.60;80.20
84902;DHT22;75166;51.198;6.010;2024-02-21T04:06:00;10.60;80.30
84902;DHT22;75166;51.198;6.010;2024-02-21T04:08:26;10.60;80.30
84902;DHT22;75166;51.198;6.010;2024-02-21T04:10:51;10.60;80.20
84902;DHT22;75166;51.198;6.010;2024-02-21T04:13:17;10.60;80.20
84902;DHT22;75166;51.198;6.010;2024-02-21T04:15:43;10.50;80.20
84902;DHT22;75166;51.198;6.010;2024-02-21T04:18:08;10.50;80.20
84902;DHT22;75166;51.198;6.010;2024-02-21T04:20:34;10.50;80.20
84902;DHT22;75166;51.198;6.010;2024-02-21T04:23:00;10.50;80.30
84902;DHT22;75166;51.198;6.010;2024-02-21T04:25:26;10.50;80.30
84902;DHT22;75166;51.198;6.010;2024-02-21T04:27:52;10.60;80.40
84902;DHT22;75166;51.198;6.010;2024-02-21T04:30:18;10.60;80.40
84902;DHT22;75166;51.198;6.010;2024-02-21T04:32:44;10.50;80.20
84902;DHT22;75166;51.198;6.010;2024-02-21T04:35:09;10.50;80.20
84902;DHT22;75166;51.198;6.010;2024-02-21T04:37:35;10.50;80.20
84902;DHT22;75166;51.198;6.010;2024-02-21T04:40:01;10.50;80.20
84902;DHT22;75166;51.198;6.010;2024-02-21T04:42:26;10.50;80.30
84902;DHT22;75166;51.198;6.010;2024-02-21T04:44:52;10.50;80.40
84902;DHT22;75166;51.198;6.010;2024-02-21T04:47:18;10.50;80.20
84902;DHT22;75166;51.198;6.010;2024-02-21T04:49:45;10.50;80.20
84902;DHT22;75166;51.198;6.010;2024-02-21T04:52:11;10.50;80.20
84902;DHT22;75166;51.198;6.010;2024-02-21T04:54:37;10.50;80.20
84902;DHT22;75166;51.198;6.010;2024-02-21T04:57:03;10.50;80.20
84902;DHT22;75166;51.198;6.010;2024-02-21T04:59:28;10.50;80.30
84902;DHT22;75166;51.198;6.010;2024-02-21T05:01:55;10.50;80.30
84902;DHT22;75166;51.198;6.010;2024-02-21T05:04:21;10.50;80.20
84902;DHT22;75166;51.198;6.010;2024-02-21T05:06:46;10.50;80.30
84902;DHT22;75166;51.198;6.010;2024-02-21T05:09:12;10.50;80.30
84902;DHT22;75166;51.198;6.010;2024-02-21T05:11:38;10.50;80.30
84902;DHT22;75166;51.198;6.010;2024-02-21T05:14:04;10.50;80.20
84902;DHT22;75166;51.198;6.010;2024-02-21T05:16:31;10.50;80.20
84902;DHT22;75166;51.198;6.010;2024-02-21T05:18:56;10.50;80.20
84902;DHT22;75166;51.198;6.010;2024-02-21T05:21:25;10.50;80.20
84902;DHT22;75166;51.198;6.010;2024-02-21T05:23:52;10.50;80.20
84902;DHT22;75166;51.198;6.010;2024-02-21T05:26:21;10.50;80.40
84902;DHT22;75166;51.198;6.010;2024-02-21T05:28:48;10.50;80.30
84902;DHT22;75166;51.198;6.010;2024-02-21T05:31:14;10.50;80.30
84902;DHT22;75166;51.198;6.010;2024-02-21T05:33:40;10.60;80.20
84902;DHT22;75166;51.198;6.010;2024-02-21T05:36:06;10.50;80.20
84902;DHT22;75166;51.198;6.010;2024-02-21T05:38:32;10.50;80.20
84902;DHT22;75166;51.198;6.010;2024-02-21T05:40:57;10.40;80.10
84902;DHT22;75166;51.198;6.010;2024-02-21T05:43:23;10.50;80.20
84902;DHT22;75166;51.198;6.010;2024-02-21T05:45:49;10.50;80.30
84902;DHT22;75166;51.198;6.010;2024-02-21T05:48:14;10.50;80.30
84902;DHT22;75166;51.198;6.010;2024-02-21T05:50:40;10.50;80.20
84902;DHT22;75166;51.198;6.010;2024-02-21T05:53:06;10.50;80.30
84902;DHT22;75166;51.198;6.010;2024-02-21T05:55:31;10.50;80.30
84902;DHT22;75166;51.198;6.010;2024-02-21T05:57:57;10.40;80.20
84902;DHT22;75166;51.198;6.010;2024-02-21T06:00:23;10.40;80.20
84902;DHT22;75166;51.198;6.010;2024-02-21T06:02:48;10.40;80.20
84902;DHT22;75166;51.198;6.010;2024-02-21T06:05:15;10.40;80.20
84902;DHT22;75166;51.198;6.010;2024-02-21T06:07:40;10.40;80.20
84902;DHT22;75166;51.198;6.010;2024-02-21T06:10:07;10.40;80.20
84902;DHT22;75166;51.198;6.010;2024-02-21T06:12:33;10.40;80.20
84902;DHT22;75166;51.198;6.010;2024-02-21T06:14:58;10.40;80.20
84902;DHT22;75166;51.198;6.010;2024-02-21T06:17:24;10.40;80.20
84902;DHT22;75166;51.198;6.010;2024-02-21T06:19:50;10.40;80.20
84902;DHT22;75166;51.198;6.010;2024-02-21T06:22:15;10.40;80.20
84902;DHT22;75166;51.198;6.010;2024-02-21T06:24:41;10.40;80.20
84902;DHT22;75166;51.198;6.010;2024-02-21T06:27:08;10.40;80.30
84902;DHT22;75166;51.198;6.010;2024-02-21T06:29:34;10.40;80.40
84902;DHT22;75166;51.198;6.010;2024-02-21T06:32:00;10.40;80.30
84902;DHT22;75166;51.198;6.010;2024-02-21T06:34:26;10.40;80.20
84902;DHT22;75166;51.198;6.010;2024-02-21T06:36:52;10.40;80.20
84902;DHT22;75166;51.198;6.010;2024-02-21T06:39:17;10.40;80.20
84902;DHT22;75166;51.198;6.010;2024-02-21T06:41:43;10.40;80.20
84902;DHT22;75166;51.198;6.010;2024-02-21T06:44:09;10.40;80.10
84902;DHT22;75166;51.198;6.010;2024-02-21T06:46:34;10.40;80.40
84902;DHT22;75166;51.198;6.010;2024-02-21T06:49:01;10.40;80.40
84902;DHT22;75166;51.198;6.010;2024-02-21T06:51:28;10.40;80.20
84902;DHT22;75166;51.198;6.010;2024-02-21T06:53:54;10.40;80.20
84902;DHT22;75166;51.198;6.010;2024-02-21T06:56:20;10.40;80.20
84902;DHT22;75166;51.198;6.010;2024-02-21T06:58:46;10.40;80.20
84902;DHT22;75166;51.198;6.010;2024-02-21T07:01:12;10.40;80.10
84902;DHT22;75166;51.198;6.010;2024-02-21T07:03:37;10.40;80.10
84902;DHT22;75166;51.198;6.010;2024-02-21T07:06:03;10.40;80.10
84902;DHT22;75166;51.198;6.010;2024-02-21T07:08:29;10.40;80.20
84902;DHT22;75166;51.198;6.010;2024-02-21T07:10:55;10.40;80.20
84902;DHT22;75166;51.198;6.010;2024-02-21T07:13:20;10.40;80.20
84902;DHT22;75166;51.198;6.010;2024-02-21T07:15:48;10.40;80.20
84902;DHT22;75166;51.198;6.010;2024-02-21T07:18:14;10.40;80.00
84902;DHT22;75166;51.198;6.010;2024-02-21T07:20:39;10.40;80.10
84902;DHT22;75166;51.198;6.010;2024-02-21T07:23:07;10.40;80.00
84902;DHT22;75166;51.198;6.010;2024-02-21T07:25:33;10.40;79.90
84902;DHT22;75166;51.198;6.010;2024-02-21T07:27:58;10.40;80.00
84902;DHT22;75166;51.198;6.010;2024-02-21T07:30:24;10.40;80.00
84902;DHT22;75166;51.198;6.010;2024-02-21T07:32:50;10.40;80.10
84902;DHT22;75166;51.198;6.010;2024-02-21T07:35:17;10.40;80.20
84902;DHT22;75166;51.198;6.010;2024-02-21T07:37:43;10.40;80.20
84902;DHT22;75166;51.198;6.010;2024-02-21T07:40:16;10.40;80.20
84902;DHT22;75166;51.198;6.010;2024-02-21T07:42:42;10.40;80.10
84902;DHT22;75166;51.198;6.010;2024-02-21T07:45:08;10.40;80.20
84902;DHT22;75166;51.198;6.010;2024-02-21T07:47:34;10.40;80.20
84902;DHT22;75166;51.198;6.010;2024-02-21T07:50:01;10.30;80.10
84902;DHT22;75166;51.198;6.010;2024-02-21T07:52:26;10.40;80.20
84902;DHT22;75166;51.198;6.010;2024-02-21T07:54:52;10.40;80.20
84902;DHT22;75166;51.198;6.010;2024-02-21T07:57:17;10.40;80.30
84902;DHT22;75166;51.198;6.010;2024-02-21T07:59:43;10.40;80.30
84902;DHT22;75166;51.198;6.010;2024-02-21T08:02:09;10.30;80.20
84902;DHT22;75166;51.198;6.010;2024-02-21T08:04:35;10.40;80.40
84902;DHT22;75166;51.198;6.010;2024-02-21T08:07:00;10.40;80.40
84902;DHT22;75166;51.198;6.010;2024-02-21T08:09:29;10.40;80.40
84902;DHT22;75166;51.198;6.010;2024-02-21T08:11:55;10.40;80.40
84902;DHT22;75166;51.198;6.010;2024-02-21T08:14:21;10.40;80.40
84902;DHT22;75166;51.198;6.010;2024-02-21T08:16:48;10.40;80.40
84902;DHT22;75166;51.198;6.010;2024-02-21T08:19:13;10.40;81.30
84902;DHT22;75166;51.198;6.010;2024-02-21T08:21:39;10.30;80.40
84902;DHT22;75166;51.198;6.010;2024-02-21T08:24:05;10.40;80.40
84902;DHT22;75166;51.198;6.010;2024-02-21T08:26:31;10.40;80.40
84902;DHT22;75166;51.198;6.010;2024-02-21T08:28:57;10.30;80.30
84902;DHT22;75166;51.198;6.010;2024-02-21T08:31:27;10.30;80.50
84902;DHT22;75166;51.198;6.010;2024-02-21T08:34:00;10.30;80.40
84902;DHT22;75166;51.198;6.010;2024-02-21T08:36:34;10.40;80.50
84902;DHT22;75166;51.198;6.010;2024-02-21T08:39:00;10.30;80.40
84902;DHT22;75166;51.198;6.010;2024-02-21T08:41:26;10.30;80.40
84902;DHT22;75166;51.198;6.010;2024-02-21T08:43:53;10.40;80.40
84902;DHT22;75166;51.198;6.010;2024-02-21T08:46:25;10.40;80.40
84902;DHT22;75166;51.198;6.010;2024-02-21T08:48:51;10.40;80.40
84902;DHT22;75166;51.198;6.010;2024-02-21T08:51:17;10.40;80.40
84902;DHT22;75166;51.198;6.010;2024-02-21T08:53:44;10.30;80.30
84902;DHT22;75166;51.198;6.010;2024-02-21T08:56:10;10.40;80.40
84902;DHT22;75166;51.198;6.010;2024-02-21T08:58:36;10.40;80.50
84902;DHT22;75166;51.198;6.010;2024-02-21T09:01:03;10.40;80.40
84902;DHT22;75166;51.198;6.010;2024-02-21T09:03:33;10.30;80.30
84902;DHT22;75166;51.198;6.010;2024-02-21T09:05:59;10.40;80.40
84902;DHT22;75166;51.198;6.010;2024-02-21T09:08:25;10.40;80.30
84902;DHT22;75166;51.198;6.010;2024-02-21T09:10:51;10.40;80.40
84902;DHT22;75166;51.198;6.010;2024-02-21T09:13:17;10.40;80.30
84902;DHT22;75166;51.198;6.010;2024-02-21T09:15:43;10.40;80.40
84902;DHT22;75166;51.198;6.010;2024-02-21T09:18:09;10.30;80.30
84902;DHT22;75166;51.198;6.010;2024-02-21T09:20:35;10.40;80.40
84902;DHT22;75166;51.198;6.010;2024-02-21T09:23:01;10.40;80.30
84902;DHT22;75166;51.198;6.010;2024-02-21T09:25:26;10.40;80.20
84902;DHT22;75166;51.198;6.010;2024-02-21T09:27:54;10.40;80.20
84902;DHT22;75166;51.198;6.010;2024-02-21T09:30:20;10.40;80.10
84902;DHT22;75166;51.198;6.010;2024-02-21T09:32:46;10.40;80.10
84902;DHT22;75166;51.198;6.010;2024-02-21T09:35:11;10.40;80.10
84902;DHT22;75166;51.198;6.010;2024-02-21T09:37:38;10.40;80.00
84902;DHT22;75166;51.198;6.010;2024-02-21T09:40:04;10.40;80.20
84902;DHT22;75166;51.198;6.010;2024-02-21T09:42:38;10.40;80.00
84902;DHT22;75166;51.198;6.010;2024-02-21T09:45:24;10.40;79.80
84902;DHT22;75166;51.198;6.010;2024-02-21T09:50:47;10.40;79.60
84902;DHT22;75166;51.198;6.010;2024-02-21T09:53:14;10.50;79.50
84902;DHT22;75166;51.198;6.010;2024-02-21T09:55:40;10.40;79.50
84902;DHT22;75166;51.198;6.010;2024-02-21T09:58:08;10.40;79.50
84902;DHT22;75166;51.198;6.010;2024-02-21T10:00:35;10.40;79.40
84902;DHT22;75166;51.198;6.010;2024-02-21T10:03:01;10.40;79.40
84902;DHT22;75166;51.198;6.010;2024-02-21T10:05:28;10.40;79.40
84902;DHT22;75166;51.198;6.010;2024-02-21T10:07:55;10.40;79.10
84902;DHT22;75166;51.198;6.010;2024-02-21T10:10:21;10.50;79.10
84902;DHT22;75166;51.198;6.010;2024-02-21T10:12:53;10.40;79.00
84902;DHT22;75166;51.198;6.010;2024-02-21T10:15:24;10.50;79.20
84902;DHT22;75166;51.198;6.010;2024-02-21T10:17:58;10.40;79.00
84902;DHT22;75166;51.198;6.010;2024-02-21T10:20:24;10.50;79.00
84902;DHT22;75166;51.198;6.010;2024-02-21T10:23:06;10.50;78.60
84902;DHT22;75166;51.198;6.010;2024-02-21T10:25:35;10.50;77.90
84902;DHT22;75166;51.198;6.010;2024-02-21T10:28:04;10.50;77.70
84902;DHT22;75166;51.198;6.010;2024-02-21T10:30:29;10.50;77.70
84902;DHT22;75166;51.198;6.010;2024-02-21T10:32:55;10.50;77.70
84902;DHT22;75166;51.198;6.010;2024-02-21T10:35:32;10.50;77.90
84902;DHT22;75166;51.198;6.010;2024-02-21T10:37:58;10.50;78.00
84902;DHT22;75166;51.198;6.010;2024-02-21T10:40:25;10.60;78.10
84902;DHT22;75166;51.198;6.010;2024-02-21T10:42:56;10.50;78.00
84902;DHT22;75166;51.198;6.010;2024-02-21T10:45:31;10.60;77.90
84902;DHT22;75166;51.198;6.010;2024-02-21T10:48:01;10.60;77.90
84902;DHT22;75166;51.198;6.010;2024-02-21T10:50:32;10.60;78.10
84902;DHT22;75166;51.198;6.010;2024-02-21T10:53:14;10.60;78.00
84902;DHT22;75166;51.198;6.010;2024-02-21T10:55:51;10.60;78.10
84902;DHT22;75166;51.198;6.010;2024-02-21T10:58:21;10.70;77.80
84902;DHT22;75166;51.198;6.010;2024-02-21T11:00:49;10.70;77.80
84902;DHT22;75166;51.198;6.010;2024-02-21T11:03:15;10.70;77.80
84902;DHT22;75166;51.198;6.010;2024-02-21T11:05:41;10.70;77.60
84902;DHT22;75166;51.198;6.010;2024-02-21T11:08:11;10.80;77.60
84902;DHT22;75166;51.198;6.010;2024-02-21T11:10:37;10.80;77.60
84902;DHT22;75166;51.198;6.010;2024-02-21T11:13:09;10.80;77.50
84902;DHT22;75166;51.198;6.010;2024-02-21T11:15:35;10.80;77.50
84902;DHT22;75166;51.198;6.010;2024-02-21T11:18:00;10.80;77.50
84902;DHT22;75166;51.198;6.010;2024-02-21T11:20:36;10.90;77.60
84902;DHT22;75166;51.198;6.010;2024-02-21T11:23:02;10.90;77.20
84902;DHT22;75166;51.198;6.010;2024-02-21T11:25:28;10.90;77.00
84902;DHT22;75166;51.198;6.010;2024-02-21T11:28:00;10.90;77.10
84902;DHT22;75166;51.198;6.010;2024-02-21T11:30:33;10.90;77.00
84902;DHT22;75166;51.198;6.010;2024-02-21T11:33:05;10.90;77.00
84902;DHT22;75166;51.198;6.010;2024-02-21T11:35:34;11.00;77.00
84902;DHT22;75166;51.198;6.010;2024-02-21T11:38:12;11.00;77.00
84902;DHT22;75166;51.198;6.010;2024-02-21T11:40:44;11.00;76.90
84902;DHT22;75166;51.198;6.010;2024-02-21T11:43:10;11.00;76.90
84902;DHT22;75166;51.198;6.010;2024-02-21T11:45:36;11.10;76.90
84902;DHT22;75166;51.198;6.010;2024-02-21T11:48:02;11.10;76.90
84902;DHT22;75166;51.198;6.010;2024-02-21T11:50:31;11.10;76.70
84902;DHT22;75166;51.198;6.010;2024-02-21T11:52:57;11.10;76.60
84902;DHT22;75166;51.198;6.010;2024-02-21T11:55:23;11.10;76.70
84902;DHT22;75166;51.198;6.010;2024-02-21T11:57:49;11.20;76.70
84902;DHT22;75166;51.198;6.010;2024-02-21T12:00:15;11.20;76.70
84902;DHT22;75166;51.198;6.010;2024-02-21T12:02:42;11.20;76.50
84902;DHT22;75166;51.198;6.010;2024-02-21T12:05:08;11.20;76.50
84902;DHT22;75166;51.198;6.010;2024-02-21T12:07:36;11.30;76.50
84902;DHT22;75166;51.198;6.010;2024-02-21T12:10:08;11.30;76.50
84902;DHT22;75166;51.198;6.010;2024-02-21T12:12:35;11.30;76.30
84902;DHT22;75166;51.198;6.010;2024-02-21T12:15:06;11.30;76.30
84902;DHT22;75166;51.198;6.010;2024-02-21T12:17:39;11.40;76.30
84902;DHT22;75166;51.198;6.010;2024-02-21T12:20:06;11.40;76.20
84902;DHT22;75166;51.198;6.010;2024-02-21T12:22:38;11.40;76.10
84902;DHT22;75166;51.198;6.010;2024-02-21T12:25:04;11.40;75.80
84902;DHT22;75166;51.198;6.010;2024-02-21T12:27:30;11.40;75.70
84902;DHT22;75166;51.198;6.010;2024-02-21T12:29:56;11.50;75.70
84902;DHT22;75166;51.198;6.010;2024-02-21T12:32:21;11.40;75.70
84902;DHT22;75166;51.198;6.010;2024-02-21T12:34:47;11.50;75.80
84902;DHT22;75166;51.198;6.010;2024-02-21T12:37:13;11.50;75.80
84902;DHT22;75166;51.198;6.010;2024-02-21T12:39:41;11.50;75.60
84902;DHT22;75166;51.198;6.010;2024-02-21T12:42:07;11.60;75.40
84902;DHT22;75166;51.198;6.010;2024-02-21T12:44:32;11.60;75.40
84902;DHT22;75166;51.198;6.010;2024-02-21T12:46:59;11.60;75.40
84902;DHT22;75166;51.198;6.010;2024-02-21T12:49:25;11.60;75.20
84902;DHT22;75166;51.198;6.010;2024-02-21T12:51:52;11.70;75.40
84902;DHT22;75166;51.198;6.010;2024-02-21T12:54:18;11.70;75.30
84902;DHT22;75166;51.198;6.010;2024-02-21T12:56:44;11.70;75.20
84902;DHT22;75166;51.198;6.010;2024-02-21T12:59:09;11.80;75.20
84902;DHT22;75166;51.198;6.010;2024-02-21T13:01:36;11.80;75.00
84902;DHT22;75166;51.198;6.010;2024-02-21T13:04:01;11.80;75.10
84902;DHT22;75166;51.198;6.010;2024-02-21T13:06:28;11.80;74.80
84902;DHT22;75166;51.198;6.010;2024-02-21T13:08:54;11.80;74.50
84902;DHT22;75166;51.198;6.010;2024-02-21T13:11:19;11.80;74.40
84902;DHT22;75166;51.198;6.010;2024-02-21T13:13:45;11.90;74.30
84902;DHT22;75166;51.198;6.010;2024-02-21T13:16:11;11.90;74.10
84902;DHT22;75166;51.198;6.010;2024-02-21T13:18:37;11.90;74.00
84902;DHT22;75166;51.198;6.010;2024-02-21T13:21:08;11.90;74.00
84902;DHT22;75166;51.198;6.010;2024-02-21T13:23:34;11.90;73.50
84902;DHT22;75166;51.198;6.010;2024-02-21T13:25:59;11.90;73.40
84902;DHT22;75166;51.198;6.010;2024-02-21T13:28:25;11.90;73.30
84902;DHT22;75166;51.198;6.010;2024-02-21T13:30:50;11.90;73.20
84902;DHT22;75166;51.198;6.010;2024-02-21T13:33:16;11.90;73.10
84902;DHT22;75166;51.198;6.010;2024-02-21T13:35:42;12.00;73.10
84902;DHT22;75166;51.198;6.010;2024-02-21T13:38:07;11.90;73.00
84902;DHT22;75166;51.198;6.010;2024-02-21T13:40:35;11.90;73.10
84902;DHT22;75166;51.198;6.010;2024-02-21T13:43:01;12.00;73.00
84902;DHT22;75166;51.198;6.010;2024-02-21T13:45:26;12.00;72.80
84902;DHT22;75166;51.198;6.010;2024-02-21T13:47:52;11.90;72.80
84902;DHT22;75166;51.198;6.010;2024-02-21T13:50:19;12.00;72.80
84902;DHT22;75166;51.198;6.010;2024-02-21T13:52:45;12.00;72.60
84902;DHT22;75166;51.198;6.010;2024-02-21T13:55:12;12.00;72.60
84902;DHT22;75166;51.198;6.010;2024-02-21T13:57:37;12.00;72.50
84902;DHT22;75166;51.198;6.010;2024-02-21T14:00:04;12.00;72.60
84902;DHT22;75166;51.198;6.010;2024-02-21T14:02:30;12.00;72.60
84902;DHT22;75166;51.198;6.010;2024-02-21T14:04:56;12.00;72.60
84902;DHT22;75166;51.198;6.010;2024-02-21T14:07:22;12.00;72.60
84902;DHT22;75166;51.198;6.010;2024-02-21T14:09:47;12.00;72.40
84902;DHT22;75166;51.198;6.010;2024-02-21T14:12:13;12.00;72.50
84902;DHT22;75166;51.198;6.010;2024-02-21T14:14:39;12.00;72.50
84902;DHT22;75166;51.198;6.010;2024-02-21T14:17:04;12.00;72.50
84902;DHT22;75166;51.198;6.010;2024-02-21T14:19:30;12.00;72.60
84902;DHT22;75166;51.198;6.010;2024-02-21T14:21:56;12.00;72.80
84902;DHT22;75166;51.198;6.010;2024-02-21T14:24:25;12.00;72.80
84902;DHT22;75166;51.198;6.010;2024-02-21T14:26:50;12.10;72.60
84902;DHT22;75166;51.198;6.010;2024-02-21T14:29:16;12.00;72.50
84902;DHT22;75166;51.198;6.010;2024-02-21T14:31:42;12.00;72.40
84902;DHT22;75166;51.198;6.010;2024-02-21T14:34:08;12.00;72.40
84902;DHT22;75166;51.198;6.010;2024-02-21T14:36:34;12.00;72.30
84902;DHT22;75166;51.198;6.010;2024-02-21T14:38:59;12.10;72.40
84902;DHT22;75166;51.198;6.010;2024-02-21T14:41:25;12.10;72.30
84902;DHT22;75166;51.198;6.010;2024-02-21T14:43:53;12.10;72.30
84902;DHT22;75166;51.198;6.010;2024-02-21T14:46:18;12.00;72.20
84902;DHT22;75166;51.198;6.010;2024-02-21T14:48:44;12.10;73.10
84902;DHT22;75166;51.198;6.010;2024-02-21T14:51:11;12.10;72.20
84902;DHT22;75166;51.198;6.010;2024-02-21T14:53:36;12.10;72.30
84902;DHT22;75166;51.198;6.010;2024-02-21T14:56:02;12.10;72.20
84902;DHT22;75166;51.198;6.010;2024-02-21T14:58:28;12.10;72.10
84902;DHT22;75166;51.198;6.010;2024-02-21T15:00:53;12.00;72.00
84902;DHT22;75166;51.198;6.010;2024-02-21T15:03:19;12.10;72.00
84902;DHT22;75166;51.198;6.010;2024-02-21T15:05:46;12.10;71.90
84902;DHT22;75166;51.198;6.010;2024-02-21T15:08:11;12.10;71.90
84902;DHT22;75166;51.198;6.010;2024-02-21T15:10:37;12.10;71.80
84902;DHT22;75166;51.198;6.010;2024-02-21T15:13:03;12.10;71.80
84902;DHT22;75166;51.198;6.010;2024-02-21T15:15:29;12.10;71.80
84902;DHT22;75166;51.198;6.010;2024-02-21T15:17:55;12.10;71.80
84902;DHT22;75166;51.198;6.010;2024-02-21T15:20:20;12.10;71.50
84902;DHT22;75166;51.198;6.010;2024-02-21T15:22:46;12.10;71.50
84902;DHT22;75166;51.198;6.010;2024-02-21T15:25:11;12.10;72.20
84902;DHT22;75166;51.198;6.010;2024-02-21T15:27:44;12.10;71.20